Terminal Aerodrome Forecast
Issued by NWS Wilmington, OH

Current Version | Previous Version | Graphics & Text | Print | Product List | Glossary On
Versions: 1 2 3 4 5 6 7 8 9 10 11 12 13 14 15 16 17 18 19 20 21 22 23 24
983
FTUS41 KILN 220542
TAFCMH
TAF
KCMH 220542Z 2206/2306 17003KT P6SM BKN120
     FM221700 21012G20KT P6SM FEW040 BKN250
     FM230000 18010KT P6SM BKN050
     FM230400 19011KT 5SM -SHRA SCT018 OVC035=

USA.gov is the U.S. government's official web portal to all federal, state and local government web resources and services.